sensor_id;sensor_type;location;lat;lon;timestamp;temperature;humidity
44182;DHT22;30436;48.888;9.202;2023-04-25T00:00:28;11.40;99.90
44182;DHT22;30436;48.888;9.202;2023-04-25T00:02:54;11.50;99.90
44182;DHT22;30436;48.888;9.202;2023-04-25T00:05:22;11.50;99.90
44182;DHT22;30436;48.888;9.202;2023-04-25T00:07:49;11.60;99.90
44182;DHT22;30436;48.888;9.202;2023-04-25T00:10:15;11.60;99.90
44182;DHT22;30436;48.888;9.202;2023-04-25T00:12:41;11.50;99.90
44182;DHT22;30436;48.888;9.202;2023-04-25T00:15:07;11.50;99.90
44182;DHT22;30436;48.888;9.202;2023-04-25T00:17:33;11.40;99.90
44182;DHT22;30436;48.888;9.202;2023-04-25T00:20:00;11.40;99.90
44182;DHT22;30436;48.888;9.202;2023-04-25T00:22:26;11.50;99.90
44182;DHT22;30436;48.888;9.202;2023-04-25T00:24:52;11.40;99.90
44182;DHT22;30436;48.888;9.202;2023-04-25T00:27:19;11.30;99.90
44182;DHT22;30436;48.888;9.202;2023-04-25T00:29:45;11.10;99.90
44182;DHT22;30436;48.888;9.202;2023-04-25T00:32:10;10.90;99.90
44182;DHT22;30436;48.888;9.202;2023-04-25T00:34:36;11.10;99.90
44182;DHT22;30436;48.888;9.202;2023-04-25T00:37:02;11.10;99.90
44182;DHT22;30436;48.888;9.202;2023-04-25T00:39:27;11.10;99.90
44182;DHT22;30436;48.888;9.202;2023-04-25T00:41:54;11.10;99.90
44182;DHT22;30436;48.888;9.202;2023-04-25T00:44:20;11.10;99.90
44182;DHT22;30436;48.888;9.202;2023-04-25T00:46:47;11.00;99.90
44182;DHT22;30436;48.888;9.202;2023-04-25T00:49:13;11.10;99.90
44182;DHT22;30436;48.888;9.202;2023-04-25T00:51:41;11.00;99.90
44182;DHT22;30436;48.888;9.202;2023-04-25T00:54:07;11.20;99.90
44182;DHT22;30436;48.888;9.202;2023-04-25T00:56:33;11.20;99.90
44182;DHT22;30436;48.888;9.202;2023-04-25T00:58:58;11.20;99.90
44182;DHT22;30436;48.888;9.202;2023-04-25T01:01:24;11.30;99.90
44182;DHT22;30436;48.888;9.202;2023-04-25T01:03:51;11.30;99.90
44182;DHT22;30436;48.888;9.202;2023-04-25T01:06:17;11.20;99.90
44182;DHT22;30436;48.888;9.202;2023-04-25T01:08:43;11.20;99.90
44182;DHT22;30436;48.888;9.202;2023-04-25T01:11:09;11.10;99.90
44182;DHT22;30436;48.888;9.202;2023-04-25T01:13:35;11.10;99.90
44182;DHT22;30436;48.888;9.202;2023-04-25T01:16:02;11.30;99.90
44182;DHT22;30436;48.888;9.202;2023-04-25T01:18:28;11.30;99.90
44182;DHT22;30436;48.888;9.202;2023-04-25T01:20:54;11.20;99.90
44182;DHT22;30436;48.888;9.202;2023-04-25T01:23:22;11.30;99.90
44182;DHT22;30436;48.888;9.202;2023-04-25T01:25:51;11.40;99.90
44182;DHT22;30436;48.888;9.202;2023-04-25T01:28:17;11.30;99.90
44182;DHT22;30436;48.888;9.202;2023-04-25T01:30:43;11.30;99.90
44182;DHT22;30436;48.888;9.202;2023-04-25T01:33:09;11.00;99.90
44182;DHT22;30436;48.888;9.202;2023-04-25T01:35:35;11.10;99.90
44182;DHT22;30436;48.888;9.202;2023-04-25T01:38:02;11.10;99.90
44182;DHT22;30436;48.888;9.202;2023-04-25T01:40:28;11.10;99.90
44182;DHT22;30436;48.888;9.202;2023-04-25T01:42:54;11.10;99.90
44182;DHT22;30436;48.888;9.202;2023-04-25T01:45:20;11.10;99.90
44182;DHT22;30436;48.888;9.202;2023-04-25T01:47:47;11.10;99.90
44182;DHT22;30436;48.888;9.202;2023-04-25T01:50:17;11.20;99.90
44182;DHT22;30436;48.888;9.202;2023-04-25T01:52:43;11.10;99.90
44182;DHT22;30436;48.888;9.202;2023-04-25T01:55:09;11.10;99.90
44182;DHT22;30436;48.888;9.202;2023-04-25T01:57:39;11.00;99.90
44182;DHT22;30436;48.888;9.202;2023-04-25T02:00:06;11.00;99.90
44182;DHT22;30436;48.888;9.202;2023-04-25T02:02:38;10.90;99.90
44182;DHT22;30436;48.888;9.202;2023-04-25T02:05:06;10.90;99.90
44182;DHT22;30436;48.888;9.202;2023-04-25T02:07:35;10.80;99.90
44182;DHT22;30436;48.888;9.202;2023-04-25T02:10:01;10.80;99.90
44182;DHT22;30436;48.888;9.202;2023-04-25T02:12:31;10.80;99.90
44182;DHT22;30436;48.888;9.202;2023-04-25T02:15:12;10.70;99.90
44182;DHT22;30436;48.888;9.202;2023-04-25T02:17:47;10.80;99.90
44182;DHT22;30436;48.888;9.202;2023-04-25T02:20:13;10.80;99.90
44182;DHT22;30436;48.888;9.202;2023-04-25T02:22:39;10.80;99.90
44182;DHT22;30436;48.888;9.202;2023-04-25T02:25:06;10.70;99.90
44182;DHT22;30436;48.888;9.202;2023-04-25T02:27:32;10.80;99.90
44182;DHT22;30436;48.888;9.202;2023-04-25T02:29:58;10.80;99.90
44182;DHT22;30436;48.888;9.202;2023-04-25T02:32:24;10.80;99.90
44182;DHT22;30436;48.888;9.202;2023-04-25T02:34:50;10.80;99.90
44182;DHT22;30436;48.888;9.202;2023-04-25T02:37:15;10.50;99.90
44182;DHT22;30436;48.888;9.202;2023-04-25T02:39:44;10.70;99.90
44182;DHT22;30436;48.888;9.202;2023-04-25T02:42:11;10.60;99.90
44182;DHT22;30436;48.888;9.202;2023-04-25T02:44:37;10.60;99.90
44182;DHT22;30436;48.888;9.202;2023-04-25T02:47:04;10.60;99.90
44182;DHT22;30436;48.888;9.202;2023-04-25T02:49:30;10.60;99.90
44182;DHT22;30436;48.888;9.202;2023-04-25T02:51:56;10.50;99.90
44182;DHT22;30436;48.888;9.202;2023-04-25T02:54:21;10.50;99.90
44182;DHT22;30436;48.888;9.202;2023-04-25T02:56:48;10.40;99.90
44182;DHT22;30436;48.888;9.202;2023-04-25T02:59:19;10.40;99.90
44182;DHT22;30436;48.888;9.202;2023-04-25T03:01:45;10.60;99.90
44182;DHT22;30436;48.888;9.202;2023-04-25T03:04:10;10.60;99.90
44182;DHT22;30436;48.888;9.202;2023-04-25T03:06:36;10.60;99.90
44182;DHT22;30436;48.888;9.202;2023-04-25T03:09:02;10.60;99.90
44182;DHT22;30436;48.888;9.202;2023-04-25T03:11:28;10.70;99.90
44182;DHT22;30436;48.888;9.202;2023-04-25T03:13:54;10.50;99.90
44182;DHT22;30436;48.888;9.202;2023-04-25T03:16:20;10.40;99.90
44182;DHT22;30436;48.888;9.202;2023-04-25T03:18:46;10.40;99.90
44182;DHT22;30436;48.888;9.202;2023-04-25T03:21:12;10.30;99.90
44182;DHT22;30436;48.888;9.202;2023-04-25T03:23:37;10.30;99.90
44182;DHT22;30436;48.888;9.202;2023-04-25T03:26:03;10.30;99.90
44182;DHT22;30436;48.888;9.202;2023-04-25T03:28:29;10.30;99.90
44182;DHT22;30436;48.888;9.202;2023-04-25T03:30:56;10.30;99.90
44182;DHT22;30436;48.888;9.202;2023-04-25T03:33:22;10.40;99.90
44182;DHT22;30436;48.888;9.202;2023-04-25T03:35:47;10.50;99.90
44182;DHT22;30436;48.888;9.202;2023-04-25T03:38:13;10.30;99.90
44182;DHT22;30436;48.888;9.202;2023-04-25T03:40:40;10.40;99.90
44182;DHT22;30436;48.888;9.202;2023-04-25T03:43:19;10.40;99.90
44182;DHT22;30436;48.888;9.202;2023-04-25T03:45:53;10.30;99.90
44182;DHT22;30436;48.888;9.202;2023-04-25T03:48:21;10.30;99.90
44182;DHT22;30436;48.888;9.202;2023-04-25T03:50:48;10.30;99.90
44182;DHT22;30436;48.888;9.202;2023-04-25T03:53:13;10.40;99.90
44182;DHT22;30436;48.888;9.202;2023-04-25T03:55:58;10.40;99.90
44182;DHT22;30436;48.888;9.202;2023-04-25T03:58:24;10.30;99.90
44182;DHT22;30436;48.888;9.202;2023-04-25T04:00:49;10.30;99.90
44182;DHT22;30436;48.888;9.202;2023-04-25T04:03:15;10.30;99.90
44182;DHT22;30436;48.888;9.202;2023-04-25T04:05:41;10.30;99.90
44182;DHT22;30436;48.888;9.202;2023-04-25T04:08:06;10.30;99.90
44182;DHT22;30436;48.888;9.202;2023-04-25T04:10:33;10.40;99.90
44182;DHT22;30436;48.888;9.202;2023-04-25T04:12:59;10.30;99.90
44182;DHT22;30436;48.888;9.202;2023-04-25T04:15:24;10.20;99.90
44182;DHT22;30436;48.888;9.202;2023-04-25T04:17:50;10.40;99.90
44182;DHT22;30436;48.888;9.202;2023-04-25T04:20:17;10.40;99.90
44182;DHT22;30436;48.888;9.202;2023-04-25T04:22:43;10.40;99.90
44182;DHT22;30436;48.888;9.202;2023-04-25T04:25:11;10.60;99.90
44182;DHT22;30436;48.888;9.202;2023-04-25T04:27:55;10.60;99.90
44182;DHT22;30436;48.888;9.202;2023-04-25T04:30:42;10.60;99.90
44182;DHT22;30436;48.888;9.202;2023-04-25T04:33:08;10.60;99.90
44182;DHT22;30436;48.888;9.202;2023-04-25T04:35:34;10.60;99.90
44182;DHT22;30436;48.888;9.202;2023-04-25T04:40:31;10.80;99.90
44182;DHT22;30436;48.888;9.202;2023-04-25T04:43:12;10.80;99.90
44182;DHT22;30436;48.888;9.202;2023-04-25T04:46:02;10.80;99.90
44182;DHT22;30436;48.888;9.202;2023-04-25T04:48:50;10.80;99.90
44182;DHT22;30436;48.888;9.202;2023-04-25T04:51:30;10.70;99.90
44182;DHT22;30436;48.888;9.202;2023-04-25T04:54:10;10.80;99.90
44182;DHT22;30436;48.888;9.202;2023-04-25T04:57:11;10.80;99.90
44182;DHT22;30436;48.888;9.202;2023-04-25T05:00:00;10.80;99.90
44182;DHT22;30436;48.888;9.202;2023-04-25T05:02:45;10.80;99.90
44182;DHT22;30436;48.888;9.202;2023-04-25T05:05:34;10.80;99.90
44182;DHT22;30436;48.888;9.202;2023-04-25T05:08:22;10.90;99.90
44182;DHT22;30436;48.888;9.202;2023-04-25T05:10:59;11.00;99.90
44182;DHT22;30436;48.888;9.202;2023-04-25T05:13:33;11.00;99.90
44182;DHT22;30436;48.888;9.202;2023-04-25T05:16:19;11.10;99.90
44182;DHT22;30436;48.888;9.202;2023-04-25T05:18:55;11.10;99.90
44182;DHT22;30436;48.888;9.202;2023-04-25T05:21:41;11.00;99.90
44182;DHT22;30436;48.888;9.202;2023-04-25T05:24:14;11.20;99.90
44182;DHT22;30436;48.888;9.202;2023-04-25T05:26:58;11.30;99.90
44182;DHT22;30436;48.888;9.202;2023-04-25T05:29:47;11.40;99.90
44182;DHT22;30436;48.888;9.202;2023-04-25T05:32:29;11.50;99.90
44182;DHT22;30436;48.888;9.202;2023-04-25T05:34:55;11.40;99.90
44182;DHT22;30436;48.888;9.202;2023-04-25T05:37:25;11.40;99.90
44182;DHT22;30436;48.888;9.202;2023-04-25T05:40:10;11.50;99.90
44182;DHT22;30436;48.888;9.202;2023-04-25T05:43:11;11.50;99.90
44182;DHT22;30436;48.888;9.202;2023-04-25T05:45:45;11.50;99.90
44182;DHT22;30436;48.888;9.202;2023-04-25T05:48:28;11.40;99.90
44182;DHT22;30436;48.888;9.202;2023-04-25T05:50:59;11.40;99.90
44182;DHT22;30436;48.888;9.202;2023-04-25T05:53:43;11.40;99.90
44182;DHT22;30436;48.888;9.202;2023-04-25T05:56:09;11.50;99.90
44182;DHT22;30436;48.888;9.202;2023-04-25T05:58:35;11.60;99.90
44182;DHT22;30436;48.888;9.202;2023-04-25T06:01:02;11.60;99.90
44182;DHT22;30436;48.888;9.202;2023-04-25T06:03:28;11.70;99.90
44182;DHT22;30436;48.888;9.202;2023-04-25T06:05:56;11.70;99.90
44182;DHT22;30436;48.888;9.202;2023-04-25T06:08:22;11.90;99.90
44182;DHT22;30436;48.888;9.202;2023-04-25T06:10:48;11.80;99.90
44182;DHT22;30436;48.888;9.202;2023-04-25T06:13:14;11.90;99.90
44182;DHT22;30436;48.888;9.202;2023-04-25T06:15:41;12.00;99.90
44182;DHT22;30436;48.888;9.202;2023-04-25T06:18:06;12.00;99.90
44182;DHT22;30436;48.888;9.202;2023-04-25T06:20:33;12.00;99.90
44182;DHT22;30436;48.888;9.202;2023-04-25T06:23:00;12.00;99.90
44182;DHT22;30436;48.888;9.202;2023-04-25T06:25:45;12.00;99.90
44182;DHT22;30436;48.888;9.202;2023-04-25T06:28:11;12.10;99.90
44182;DHT22;30436;48.888;9.202;2023-04-25T06:30:37;12.20;99.90
44182;DHT22;30436;48.888;9.202;2023-04-25T06:33:07;12.00;99.90
44182;DHT22;30436;48.888;9.202;2023-04-25T06:35:34;11.70;99.90
44182;DHT22;30436;48.888;9.202;2023-04-25T06:38:00;11.60;99.90
44182;DHT22;30436;48.888;9.202;2023-04-25T06:42:58;11.90;99.90
44182;DHT22;30436;48.888;9.202;2023-04-25T06:45:42;12.00;99.90
44182;DHT22;30436;48.888;9.202;2023-04-25T06:48:09;12.30;99.90
44182;DHT22;30436;48.888;9.202;2023-04-25T06:50:34;12.30;99.90
44182;DHT22;30436;48.888;9.202;2023-04-25T06:53:00;12.40;99.90
44182;DHT22;30436;48.888;9.202;2023-04-25T06:55:28;12.50;99.90
44182;DHT22;30436;48.888;9.202;2023-04-25T06:58:07;12.60;99.90
44182;DHT22;30436;48.888;9.202;2023-04-25T07:00:52;12.70;99.90
44182;DHT22;30436;48.888;9.202;2023-04-25T07:03:20;12.70;99.90
44182;DHT22;30436;48.888;9.202;2023-04-25T07:05:46;12.60;99.90
44182;DHT22;30436;48.888;9.202;2023-04-25T07:08:12;12.70;99.90
44182;DHT22;30436;48.888;9.202;2023-04-25T07:10:37;12.50;99.90
44182;DHT22;30436;48.888;9.202;2023-04-25T07:13:03;12.60;99.90
44182;DHT22;30436;48.888;9.202;2023-04-25T07:15:29;12.60;99.90
44182;DHT22;30436;48.888;9.202;2023-04-25T07:17:56;12.70;99.90
44182;DHT22;30436;48.888;9.202;2023-04-25T07:20:22;12.60;99.90
44182;DHT22;30436;48.888;9.202;2023-04-25T07:22:48;12.70;99.90
44182;DHT22;30436;48.888;9.202;2023-04-25T07:25:13;12.70;99.90
44182;DHT22;30436;48.888;9.202;2023-04-25T07:27:40;12.70;99.90
44182;DHT22;30436;48.888;9.202;2023-04-25T07:30:15;12.60;99.90
44182;DHT22;30436;48.888;9.202;2023-04-25T07:32:41;12.50;99.90
44182;DHT22;30436;48.888;9.202;2023-04-25T07:35:07;12.60;99.90
44182;DHT22;30436;48.888;9.202;2023-04-25T07:37:34;12.60;99.90
44182;DHT22;30436;48.888;9.202;2023-04-25T07:40:09;12.50;99.90
44182;DHT22;30436;48.888;9.202;2023-04-25T07:42:37;12.60;99.90
44182;DHT22;30436;48.888;9.202;2023-04-25T07:45:05;12.60;99.90
44182;DHT22;30436;48.888;9.202;2023-04-25T07:47:31;12.60;99.70
44182;DHT22;30436;48.888;9.202;2023-04-25T07:49:56;12.50;99.90
44182;DHT22;30436;48.888;9.202;2023-04-25T07:52:23;12.50;99.90
44182;DHT22;30436;48.888;9.202;2023-04-25T07:54:56;12.50;99.90
44182;DHT22;30436;48.888;9.202;2023-04-25T07:57:31;12.40;99.90
44182;DHT22;30436;48.888;9.202;2023-04-25T07:59:57;12.50;99.90
44182;DHT22;30436;48.888;9.202;2023-04-25T08:02:24;12.30;99.90
44182;DHT22;30436;48.888;9.202;2023-04-25T08:04:54;12.30;99.90
44182;DHT22;30436;48.888;9.202;2023-04-25T08:07:20;12.10;99.90
44182;DHT22;30436;48.888;9.202;2023-04-25T08:09:54;11.90;99.90
44182;DHT22;30436;48.888;9.202;2023-04-25T08:12:28;12.00;99.90
44182;DHT22;30436;48.888;9.202;2023-04-25T08:14:53;11.90;99.90
44182;DHT22;30436;48.888;9.202;2023-04-25T08:17:22;11.90;99.90
44182;DHT22;30436;48.888;9.202;2023-04-25T08:19:48;11.90;99.90
44182;DHT22;30436;48.888;9.202;2023-04-25T08:22:24;11.90;99.90
44182;DHT22;30436;48.888;9.202;2023-04-25T08:24:56;11.90;99.90
44182;DHT22;30436;48.888;9.202;2023-04-25T08:27:22;11.90;99.90
44182;DHT22;30436;48.888;9.202;2023-04-25T08:29:48;11.90;99.90
44182;DHT22;30436;48.888;9.202;2023-04-25T08:32:14;11.80;99.90
44182;DHT22;30436;48.888;9.202;2023-04-25T08:34:49;11.70;99.90
44182;DHT22;30436;48.888;9.202;2023-04-25T08:40:29;11.20;99.90
44182;DHT22;30436;48.888;9.202;2023-04-25T08:43:06;11.20;99.90
44182;DHT22;30436;48.888;9.202;2023-04-25T08:45:39;11.20;99.90
44182;DHT22;30436;48.888;9.202;2023-04-25T08:48:15;11.30;99.90
44182;DHT22;30436;48.888;9.202;2023-04-25T08:50:52;11.20;99.90
44182;DHT22;30436;48.888;9.202;2023-04-25T08:53:28;11.10;99.90
44182;DHT22;30436;48.888;9.202;2023-04-25T08:55:55;11.20;99.90
44182;DHT22;30436;48.888;9.202;2023-04-25T09:00:36;11.10;99.90
44182;DHT22;30436;48.888;9.202;2023-04-25T09:03:01;11.10;99.90
44182;DHT22;30436;48.888;9.202;2023-04-25T09:05:33;11.20;99.90
44182;DHT22;30436;48.888;9.202;2023-04-25T09:07:58;11.10;99.90
44182;DHT22;30436;48.888;9.202;2023-04-25T09:10:27;11.20;99.90
44182;DHT22;30436;48.888;9.202;2023-04-25T09:13:07;11.30;99.90
44182;DHT22;30436;48.888;9.202;2023-04-25T09:15:56;11.20;99.90
44182;DHT22;30436;48.888;9.202;2023-04-25T09:18:41;10.70;99.90
44182;DHT22;30436;48.888;9.202;2023-04-25T09:21:09;10.70;99.90
44182;DHT22;30436;48.888;9.202;2023-04-25T09:23:46;10.80;99.90
44182;DHT22;30436;48.888;9.202;2023-04-25T09:26:18;10.80;99.90
44182;DHT22;30436;48.888;9.202;2023-04-25T09:28:45;10.60;99.90
44182;DHT22;30436;48.888;9.202;2023-04-25T09:31:22;10.80;99.90
44182;DHT22;30436;48.888;9.202;2023-04-25T09:33:50;10.70;99.90
44182;DHT22;30436;48.888;9.202;2023-04-25T09:36:15;10.70;99.90
44182;DHT22;30436;48.888;9.202;2023-04-25T09:38:59;10.70;99.90
44182;DHT22;30436;48.888;9.202;2023-04-25T09:41:37;10.40;99.90
44182;DHT22;30436;48.888;9.202;2023-04-25T09:44:03;10.40;99.90
44182;DHT22;30436;48.888;9.202;2023-04-25T09:46:35;10.30;99.90
44182;DHT22;30436;48.888;9.202;2023-04-25T09:49:08;10.20;99.90
44182;DHT22;30436;48.888;9.202;2023-04-25T09:51:57;10.20;99.90
44182;DHT22;30436;48.888;9.202;2023-04-25T09:54:26;10.40;99.90
44182;DHT22;30436;48.888;9.202;2023-04-25T09:57:26;10.70;99.90
44182;DHT22;30436;48.888;9.202;2023-04-25T09:59:55;10.70;99.90
44182;DHT22;30436;48.888;9.202;2023-04-25T10:02:23;10.60;99.90
44182;DHT22;30436;48.888;9.202;2023-04-25T10:04:54;10.60;99.90
44182;DHT22;30436;48.888;9.202;2023-04-25T10:07:26;10.60;99.90
44182;DHT22;30436;48.888;9.202;2023-04-25T10:09:59;10.60;99.90
44182;DHT22;30436;48.888;9.202;2023-04-25T10:12:26;10.50;99.90
44182;DHT22;30436;48.888;9.202;2023-04-25T10:14:52;10.50;99.90
44182;DHT22;30436;48.888;9.202;2023-04-25T10:17:20;10.40;99.90
44182;DHT22;30436;48.888;9.202;2023-04-25T10:19:47;10.10;99.90
44182;DHT22;30436;48.888;9.202;2023-04-25T10:22:18;9.90;99.90
44182;DHT22;30436;48.888;9.202;2023-04-25T10:24:46;9.50;99.90
44182;DHT22;30436;48.888;9.202;2023-04-25T10:27:12;9.30;99.90
44182;DHT22;30436;48.888;9.202;2023-04-25T10:29:38;9.10;99.90
44182;DHT22;30436;48.888;9.202;2023-04-25T10:32:07;9.20;99.90
44182;DHT22;30436;48.888;9.202;2023-04-25T10:34:41;9.20;99.90
44182;DHT22;30436;48.888;9.202;2023-04-25T10:37:10;9.20;99.90
44182;DHT22;30436;48.888;9.202;2023-04-25T10:39:39;9.20;99.90
44182;DHT22;30436;48.888;9.202;2023-04-25T10:42:05;9.10;99.90
44182;DHT22;30436;48.888;9.202;2023-04-25T10:44:33;9.10;99.90
44182;DHT22;30436;48.888;9.202;2023-04-25T10:47:00;9.10;99.90
44182;DHT22;30436;48.888;9.202;2023-04-25T10:49:37;9.20;99.90
44182;DHT22;30436;48.888;9.202;2023-04-25T10:54:54;9.50;99.90
44182;DHT22;30436;48.888;9.202;2023-04-25T10:57:30;9.60;99.90
44182;DHT22;30436;48.888;9.202;2023-04-25T11:00:10;9.60;99.90
44182;DHT22;30436;48.888;9.202;2023-04-25T11:02:52;9.40;99.90
44182;DHT22;30436;48.888;9.202;2023-04-25T11:05:32;8.70;99.90
44182;DHT22;30436;48.888;9.202;2023-04-25T11:07:58;8.70;99.90
44182;DHT22;30436;48.888;9.202;2023-04-25T11:10:32;8.80;99.90
44182;DHT22;30436;48.888;9.202;2023-04-25T11:12:58;9.00;99.90
44182;DHT22;30436;48.888;9.202;2023-04-25T11:15:25;9.00;99.90
44182;DHT22;30436;48.888;9.202;2023-04-25T11:17:55;9.20;99.90
44182;DHT22;30436;48.888;9.202;2023-04-25T11:20:21;9.10;99.90
44182;DHT22;30436;48.888;9.202;2023-04-25T11:22:48;9.10;99.90
44182;DHT22;30436;48.888;9.202;2023-04-25T11:25:15;9.20;99.90
44182;DHT22;30436;48.888;9.202;2023-04-25T11:27:58;9.10;99.90
44182;DHT22;30436;48.888;9.202;2023-04-25T11:30:26;9.30;99.90
44182;DHT22;30436;48.888;9.202;2023-04-25T11:32:51;9.50;99.90
44182;DHT22;30436;48.888;9.202;2023-04-25T11:35:21;9.40;99.90
44182;DHT22;30436;48.888;9.202;2023-04-25T11:37:48;9.40;99.90
44182;DHT22;30436;48.888;9.202;2023-04-25T11:40:15;9.30;99.90
44182;DHT22;30436;48.888;9.202;2023-04-25T11:42:45;9.40;99.90
44182;DHT22;30436;48.888;9.202;2023-04-25T11:45:11;9.40;99.90
44182;DHT22;30436;48.888;9.202;2023-04-25T11:47:37;9.40;99.90
44182;DHT22;30436;48.888;9.202;2023-04-25T11:50:05;9.50;99.90
44182;DHT22;30436;48.888;9.202;2023-04-25T11:52:46;9.60;99.90
44182;DHT22;30436;48.888;9.202;2023-04-25T11:55:16;9.70;99.90
44182;DHT22;30436;48.888;9.202;2023-04-25T11:57:44;9.70;99.90
44182;DHT22;30436;48.888;9.202;2023-04-25T12:00:18;9.50;99.90
44182;DHT22;30436;48.888;9.202;2023-04-25T12:02:56;9.50;99.90
44182;DHT22;30436;48.888;9.202;2023-04-25T12:05:28;9.70;99.90
44182;DHT22;30436;48.888;9.202;2023-04-25T12:07:54;9.50;99.90
44182;DHT22;30436;48.888;9.202;2023-04-25T12:10:20;9.20;99.90
44182;DHT22;30436;48.888;9.202;2023-04-25T12:12:47;9.40;99.90
44182;DHT22;30436;48.888;9.202;2023-04-25T12:15:24;9.40;99.90
44182;DHT22;30436;48.888;9.202;2023-04-25T12:17:54;9.60;99.90
44182;DHT22;30436;48.888;9.202;2023-04-25T12:20:26;9.60;99.90
44182;DHT22;30436;48.888;9.202;2023-04-25T12:22:52;9.60;99.90
44182;DHT22;30436;48.888;9.202;2023-04-25T12:25:35;9.70;99.90
44182;DHT22;30436;48.888;9.202;2023-04-25T12:31:03;9.40;99.90
44182;DHT22;30436;48.888;9.202;2023-04-25T12:33:36;9.50;99.90
44182;DHT22;30436;48.888;9.202;2023-04-25T12:36:06;9.60;99.90
44182;DHT22;30436;48.888;9.202;2023-04-25T12:38:38;9.80;99.90
44182;DHT22;30436;48.888;9.202;2023-04-25T12:41:04;9.80;99.90
44182;DHT22;30436;48.888;9.202;2023-04-25T12:43:30;9.90;99.90
44182;DHT22;30436;48.888;9.202;2023-04-25T12:45:56;10.20;99.90
44182;DHT22;30436;48.888;9.202;2023-04-25T12:48:22;10.50;99.90
44182;DHT22;30436;48.888;9.202;2023-04-25T12:50:49;10.70;99.90
44182;DHT22;30436;48.888;9.202;2023-04-25T12:53:19;10.90;99.90
44182;DHT22;30436;48.888;9.202;2023-04-25T12:55:46;11.20;99.90
44182;DHT22;30436;48.888;9.202;2023-04-25T12:58:16;12.00;99.90
44182;DHT22;30436;48.888;9.202;2023-04-25T13:00:42;12.10;99.90
44182;DHT22;30436;48.888;9.202;2023-04-25T13:03:08;12.30;99.90
44182;DHT22;30436;48.888;9.202;2023-04-25T13:05:35;12.40;99.90
44182;DHT22;30436;48.888;9.202;2023-04-25T13:08:00;12.10;99.90
44182;DHT22;30436;48.888;9.202;2023-04-25T13:10:26;12.10;99.90
44182;DHT22;30436;48.888;9.202;2023-04-25T13:12:52;12.10;99.90
44182;DHT22;30436;48.888;9.202;2023-04-25T13:15:17;12.20;99.90
44182;DHT22;30436;48.888;9.202;2023-04-25T13:17:43;12.60;99.90
44182;DHT22;30436;48.888;9.202;2023-04-25T13:20:09;13.10;99.90
44182;DHT22;30436;48.888;9.202;2023-04-25T13:22:36;13.20;99.90
44182;DHT22;30436;48.888;9.202;2023-04-25T13:25:03;13.10;99.90
44182;DHT22;30436;48.888;9.202;2023-04-25T13:27:29;12.90;99.90
44182;DHT22;30436;48.888;9.202;2023-04-25T13:29:58;12.70;99.90
44182;DHT22;30436;48.888;9.202;2023-04-25T13:32:23;12.70;99.90
44182;DHT22;30436;48.888;9.202;2023-04-25T13:34:49;12.50;99.90
44182;DHT22;30436;48.888;9.202;2023-04-25T13:37:15;12.30;99.90
44182;DHT22;30436;48.888;9.202;2023-04-25T13:39:41;12.30;99.90
44182;DHT22;30436;48.888;9.202;2023-04-25T13:42:06;12.10;99.90
44182;DHT22;30436;48.888;9.202;2023-04-25T13:44:32;12.10;99.90
44182;DHT22;30436;48.888;9.202;2023-04-25T13:46:57;12.20;99.90
44182;DHT22;30436;48.888;9.202;2023-04-25T13:49:23;12.30;99.90
44182;DHT22;30436;48.888;9.202;2023-04-25T13:51:49;12.40;99.90
44182;DHT22;30436;48.888;9.202;2023-04-25T13:54:14;12.50;99.90
44182;DHT22;30436;48.888;9.202;2023-04-25T13:56:40;12.50;99.90
44182;DHT22;30436;48.888;9.202;2023-04-25T13:59:07;12.60;99.90
44182;DHT22;30436;48.888;9.202;2023-04-25T14:01:33;13.00;99.90
44182;DHT22;30436;48.888;9.202;2023-04-25T14:04:03;13.00;99.90
44182;DHT22;30436;48.888;9.202;2023-04-25T14:06:30;13.00;99.90
44182;DHT22;30436;48.888;9.202;2023-04-25T14:08:56;12.80;99.90
44182;DHT22;30436;48.888;9.202;2023-04-25T14:11:22;12.80;99.90
44182;DHT22;30436;48.888;9.202;2023-04-25T14:13:48;12.80;99.90
44182;DHT22;30436;48.888;9.202;2023-04-25T14:16:15;12.90;99.90
44182;DHT22;30436;48.888;9.202;2023-04-25T14:18:41;13.20;99.90
44182;DHT22;30436;48.888;9.202;2023-04-25T14:21:06;13.90;99.90
44182;DHT22;30436;48.888;9.202;2023-04-25T14:23:32;15.10;99.90
44182;DHT22;30436;48.888;9.202;2023-04-25T14:25:58;15.10;99.90
44182;DHT22;30436;48.888;9.202;2023-04-25T14:28:23;15.50;99.90
44182;DHT22;30436;48.888;9.202;2023-04-25T14:30:49;15.40;99.90
44182;DHT22;30436;48.888;9.202;2023-04-25T14:33:15;15.30;99.90
44182;DHT22;30436;48.888;9.202;2023-04-25T14:35:41;15.00;99.90
44182;DHT22;30436;48.888;9.202;2023-04-25T14:38:07;14.50;99.90
44182;DHT22;30436;48.888;9.202;2023-04-25T14:40:33;14.10;99.90
44182;DHT22;30436;48.888;9.202;2023-04-25T14:42:59;14.10;99.90
44182;DHT22;30436;48.888;9.202;2023-04-25T14:45:24;14.10;99.90
44182;DHT22;30436;48.888;9.202;2023-04-25T14:47:50;13.90;99.90
44182;DHT22;30436;48.888;9.202;2023-04-25T14:50:16;13.80;99.90
44182;DHT22;30436;48.888;9.202;2023-04-25T14:52:41;13.70;99.90
44182;DHT22;30436;48.888;9.202;2023-04-25T14:55:08;13.50;99.90
44182;DHT22;30436;48.888;9.202;2023-04-25T14:57:34;13.10;99.90
44182;DHT22;30436;48.888;9.202;2023-04-25T15:00:00;13.10;99.90
44182;DHT22;30436;48.888;9.202;2023-04-25T15:02:27;13.20;99.90
44182;DHT22;30436;48.888;9.202;2023-04-25T15:04:53;13.30;99.90
44182;DHT22;30436;48.888;9.202;2023-04-25T15:07:21;13.30;99.90
44182;DHT22;30436;48.888;9.202;2023-04-25T15:09:47;13.10;99.90
44182;DHT22;30436;48.888;9.202;2023-04-25T15:12:13;13.00;99.90
44182;DHT22;30436;48.888;9.202;2023-04-25T15:14:40;13.10;99.90
44182;DHT22;30436;48.888;9.202;2023-04-25T15:17:06;13.20;99.90
44182;DHT22;30436;48.888;9.202;2023-04-25T15:22:27;13.40;99.90
44182;DHT22;30436;48.888;9.202;2023-04-25T15:24:53;13.30;99.90
44182;DHT22;30436;48.888;9.202;2023-04-25T15:27:19;13.40;99.90
